createdAt,value
2019-04-25T00:02:19.234Z,13.98
2019-04-25T00:04:52.482Z,13.15
2019-04-25T00:07:25.994Z,13.65
2019-04-25T00:09:59.017Z,13.32
2019-04-25T00:12:33.411Z,13.70
2019-04-25T00:15:07.314Z,12.85
2019-04-25T00:17:42.298Z,13.88
2019-04-25T00:20:17.261Z,13.38
2019-04-25T00:23:02.033Z,14.38
2019-04-25T00:25:59.235Z,13.38
2019-04-25T00:28:33.166Z,14.63
2019-04-25T00:31:08.173Z,13.70
2019-04-25T00:33:43.995Z,12.28
2019-04-25T00:36:17.528Z,13.68
2019-04-25T00:38:52.321Z,13.75
2019-04-25T00:41:26.681Z,12.95
2019-04-25T00:44:00.520Z,14.00
2019-04-25T00:46:34.427Z,12.93
2019-04-25T00:49:07.769Z,13.08
2019-04-25T00:51:42.679Z,13.18
2019-04-25T00:54:15.153Z,13.35
2019-04-25T00:56:49.392Z,13.28
2019-04-25T00:59:47.488Z,13.30
2019-04-25T01:02:45.288Z,12.28
2019-04-25T01:05:19.513Z,13.10
2019-04-25T01:07:53.567Z,13.53
2019-04-25T01:10:28.082Z,13.40
2019-04-25T01:13:03.115Z,13.28
2019-04-25T01:15:36.316Z,12.50
2019-04-25T01:18:09.678Z,12.98
2019-04-25T01:20:43.434Z,12.28
2019-04-25T01:23:16.275Z,12.98
2019-04-25T01:25:49.893Z,13.08
2019-04-25T01:28:24.410Z,12.90
2019-04-25T01:30:58.664Z,12.65
2019-04-25T01:33:33.359Z,14.00
2019-04-25T01:36:26.246Z,12.75
2019-04-25T01:39:21.681Z,12.60
2019-04-25T01:42:11.813Z,11.78
2019-04-25T01:44:47.901Z,13.30
2019-04-25T01:47:23.981Z,13.38
2019-04-25T01:49:58.451Z,13.05
2019-04-25T01:52:31.496Z,12.65
2019-04-25T01:55:05.588Z,11.80
2019-04-25T01:57:39.053Z,13.22
2019-04-25T02:00:14.333Z,13.05
2019-04-25T02:02:47.739Z,12.40
2019-04-25T02:05:21.333Z,12.00
2019-04-25T02:07:55.832Z,12.47
2019-04-25T02:10:29.934Z,12.05
2019-04-25T02:13:05.739Z,11.90
2019-04-25T02:15:39.211Z,11.97
2019-04-25T02:18:13.714Z,11.45
2019-04-25T02:20:47.504Z,11.70
2019-04-25T02:23:20.623Z,11.50
2019-04-25T02:26:06.092Z,11.80
2019-04-25T02:28:29.066Z,11.63
2019-04-25T02:31:03.816Z,10.82
2019-04-25T02:33:36.735Z,11.73
2019-04-25T02:36:10.345Z,10.95
2019-04-25T02:38:44.430Z,11.35
2019-04-25T02:41:17.675Z,11.50
2019-04-25T02:43:50.910Z,11.55
2019-04-25T02:46:41.611Z,11.90
2019-04-25T02:49:40.381Z,11.20
2019-04-25T02:52:19.783Z,11.53
2019-04-25T02:54:55.717Z,11.53
2019-04-25T02:57:29.394Z,12.07
2019-04-25T03:00:07.353Z,11.00
2019-04-25T03:02:39.693Z,11.85
2019-04-25T03:05:14.361Z,11.55
2019-04-25T03:07:48.518Z,10.80
2019-04-25T03:10:26.664Z,10.95
2019-04-25T03:12:59.045Z,11.12
2019-04-25T03:15:34.241Z,10.68
2019-04-25T03:18:11.898Z,10.80
2019-04-25T03:21:02.963Z,10.88
2019-04-25T03:23:42.561Z,11.28
2019-04-25T03:26:15.776Z,10.25
2019-04-25T03:28:49.737Z,11.48
2019-04-25T03:31:27.026Z,9.68
2019-04-25T03:33:58.359Z,10.63
2019-04-25T03:36:33.800Z,9.93
2019-04-25T03:39:08.772Z,9.85
2019-04-25T03:41:41.567Z,10.58
2019-04-25T03:44:15.052Z,9.85
2019-04-25T03:46:48.653Z,9.98
2019-04-25T03:49:21.928Z,9.18
2019-04-25T03:51:55.495Z,9.48
2019-04-25T03:54:29.129Z,9.78
2019-04-25T03:57:04.922Z,10.08
2019-04-25T03:59:36.865Z,9.73
2019-04-25T04:02:09.870Z,10.05
2019-04-25T04:04:43.616Z,10.30
2019-04-25T04:07:16.335Z,9.00
2019-04-25T04:09:50.109Z,9.73
2019-04-25T04:12:24.301Z,8.85
2019-04-25T04:14:58.319Z,9.23
2019-04-25T04:17:53.921Z,8.90
2019-04-25T04:20:49.011Z,8.98
2019-04-25T04:23:37.681Z,8.80
2019-04-25T04:26:13.395Z,9.28
2019-04-25T04:28:46.766Z,8.78
2019-04-25T04:31:19.989Z,7.95
2019-04-25T04:33:53.293Z,9.10
2019-04-25T04:36:26.630Z,8.80
2019-04-25T04:39:00.204Z,9.18
2019-04-25T04:41:33.869Z,9.75
2019-04-25T04:44:08.325Z,9.28
2019-04-25T04:46:43.894Z,9.58
2019-04-25T04:49:17.274Z,8.95
2019-04-25T04:51:51.275Z,10.00
2019-04-25T04:54:25.113Z,9.58
2019-04-25T04:56:58.396Z,9.70
2019-04-25T04:59:33.680Z,9.08
2019-04-25T05:02:30.572Z,9.83
2019-04-25T05:05:23.485Z,9.08
2019-04-25T05:08:04.927Z,9.08
2019-04-25T05:10:38.391Z,9.53
2019-04-25T05:13:12.146Z,9.13
2019-04-25T05:15:46.552Z,9.05
2019-04-25T05:18:31.584Z,10.23
2019-04-25T05:20:55.674Z,9.45
2019-04-25T05:23:29.259Z,9.48
2019-04-25T05:26:04.274Z,9.13
2019-04-25T05:28:37.869Z,9.33
2019-04-25T05:31:28.643Z,8.88
2019-04-25T05:34:03.691Z,8.80
2019-04-25T05:36:40.025Z,9.28
2019-04-25T05:39:17.093Z,9.48
2019-04-25T05:42:20.732Z,9.23
2019-04-25T05:44:54.155Z,8.60
2019-04-25T05:47:28.245Z,8.90
2019-04-25T05:50:02.112Z,8.20
2019-04-25T05:52:35.392Z,9.13
2019-04-25T05:55:08.470Z,9.43
2019-04-25T05:57:47.718Z,8.35
2019-04-25T06:00:18.954Z,8.00
2019-04-25T06:02:53.274Z,8.08
2019-04-25T06:05:28.391Z,8.80
2019-04-25T06:08:01.872Z,8.48
2019-04-25T06:10:56.566Z,9.00
2019-04-25T06:13:46.245Z,9.03
2019-04-25T06:16:27.035Z,9.55
2019-04-25T06:19:13.636Z,9.28
2019-04-25T06:21:41.294Z,9.00
2019-04-25T06:24:37.703Z,8.38
2019-04-25T06:27:29.342Z,8.15
2019-04-25T06:30:17.470Z,8.25
2019-04-25T06:32:51.076Z,7.67
2019-04-25T06:35:25.163Z,7.85
2019-04-25T06:37:58.664Z,7.35
2019-04-25T06:40:31.146Z,7.37
2019-04-25T06:43:03.653Z,7.30
2019-04-25T06:45:44.158Z,6.47
2019-04-25T06:48:28.969Z,6.75
2019-04-25T06:51:04.063Z,7.30
2019-04-25T06:53:37.357Z,6.95
2019-04-25T06:56:11.115Z,7.08
2019-04-25T06:58:44.660Z,6.75
2019-04-25T07:01:18.409Z,7.45
2019-04-25T07:03:51.561Z,7.42
2019-04-25T07:06:26.069Z,7.03
2019-04-25T07:09:00.108Z,6.75
2019-04-25T07:11:34.890Z,6.22
2019-04-25T07:14:09.037Z,6.35
2019-04-25T07:16:43.314Z,7.08
2019-04-25T07:19:17.643Z,5.95
2019-04-25T07:21:51.264Z,6.20
2019-04-25T07:24:26.921Z,6.15
2019-04-25T07:27:17.875Z,5.87
2019-04-25T07:30:13.510Z,5.28
2019-04-25T07:32:57.427Z,6.70
2019-04-25T07:35:31.222Z,5.85
2019-04-25T07:38:05.303Z,6.30
2019-04-25T07:40:39.567Z,5.87
2019-04-25T07:43:13.456Z,5.67
2019-04-25T07:45:46.796Z,6.08
2019-04-25T07:48:22.750Z,6.60
2019-04-25T07:50:55.907Z,4.80
2019-04-25T07:53:30.727Z,5.75
2019-04-25T07:56:06.187Z,6.25
2019-04-25T07:58:50.342Z,6.10
2019-04-25T08:01:19.317Z,5.87
2019-04-25T08:03:53.813Z,6.53
2019-04-25T08:06:27.945Z,6.47
2019-04-25T08:09:02.092Z,5.72
2019-04-25T08:11:36.236Z,5.97
2019-04-25T08:14:17.341Z,5.58
2019-04-25T08:16:53.773Z,5.20
2019-04-25T08:19:29.648Z,6.62
2019-04-25T08:22:03.621Z,5.78
2019-04-25T08:24:39.197Z,6.17
2019-04-25T08:27:13.355Z,6.37
2019-04-25T08:29:47.250Z,6.25
2019-04-25T08:32:21.496Z,6.22
2019-04-25T08:34:54.746Z,6.17
2019-04-25T08:37:30.302Z,5.83
2019-04-25T08:40:03.980Z,6.05
2019-04-25T08:42:37.957Z,6.37
2019-04-25T08:45:13.319Z,6.05
2019-04-25T08:47:47.178Z,5.83
2019-04-25T08:50:55.280Z,5.75
2019-04-25T08:53:32.791Z,6.40
2019-04-25T08:56:14.947Z,5.65
2019-04-25T08:59:07.964Z,6.42
2019-04-25T09:02:05.299Z,5.70
2019-04-25T09:04:55.089Z,5.80
2019-04-25T09:07:28.320Z,5.70
2019-04-25T09:10:03.472Z,5.70
2019-04-25T09:12:36.639Z,5.80
2019-04-25T09:15:11.248Z,6.03
2019-04-25T09:17:46.969Z,6.12
2019-04-25T09:20:20.468Z,5.67
2019-04-25T09:22:54.368Z,5.92
2019-04-25T09:25:28.617Z,5.55
2019-04-25T09:28:00.986Z,5.92
2019-04-25T09:30:35.835Z,6.17
2019-04-25T09:33:10.046Z,5.67
2019-04-25T09:35:45.719Z,6.05
2019-04-25T09:38:19.929Z,5.47
2019-04-25T09:40:54.132Z,5.15
2019-04-25T09:43:27.576Z,6.12
2019-04-25T09:46:09.329Z,5.78
2019-04-25T09:48:56.824Z,5.58
2019-04-25T09:51:33.671Z,5.53
2019-04-25T09:54:23.884Z,5.53
2019-04-25T09:57:01.541Z,5.87
2019-04-25T09:59:35.289Z,5.35
2019-04-25T10:02:10.490Z,5.05
2019-04-25T10:04:46.089Z,4.65
2019-04-25T10:07:19.186Z,4.90
2019-04-25T10:09:54.632Z,4.70
2019-04-25T10:12:28.112Z,5.25
2019-04-25T10:15:21.207Z,5.12
2019-04-25T10:17:54.619Z,5.15
2019-04-25T10:20:28.397Z,5.05
2019-04-25T10:23:02.113Z,5.00
2019-04-25T10:25:35.687Z,5.20
2019-04-25T10:28:10.535Z,5.35
2019-04-25T10:30:44.522Z,5.50
2019-04-25T10:33:19.890Z,4.97
2019-04-25T10:35:58.958Z,5.05
2019-04-25T10:38:29.783Z,5.33
2019-04-25T10:41:04.269Z,5.10
2019-04-25T10:43:38.010Z,4.78
2019-04-25T10:46:11.576Z,5.62
2019-04-25T10:48:44.785Z,5.22
2019-04-25T10:51:20.241Z,5.37
2019-04-25T10:53:55.026Z,5.05
2019-04-25T10:56:29.188Z,5.30
2019-04-25T10:59:04.138Z,5.83
2019-04-25T11:01:38.026Z,5.17
2019-04-25T11:04:20.990Z,5.60
2019-04-25T11:06:55.304Z,5.40
2019-04-25T11:09:29.197Z,5.95
2019-04-25T11:12:02.729Z,5.65
2019-04-25T11:14:37.282Z,5.50
2019-04-25T11:17:10.550Z,4.78
2019-04-25T11:19:44.550Z,4.80
2019-04-25T11:22:17.917Z,4.65
2019-04-25T11:24:50.925Z,5.35
2019-04-25T11:27:23.972Z,4.87
2019-04-25T11:30:08.545Z,4.70
2019-04-25T11:32:34.012Z,4.45
2019-04-25T11:35:07.666Z,4.83
2019-04-25T11:37:41.204Z,5.15
2019-04-25T11:40:37.876Z,4.78
2019-04-25T11:43:10.881Z,5.17
2019-04-25T11:45:45.939Z,4.65
2019-04-25T11:48:20.311Z,5.50
2019-04-25T11:50:55.803Z,4.92
2019-04-25T11:53:28.975Z,4.83
2019-04-25T11:56:03.719Z,4.78
2019-04-25T11:58:37.220Z,4.72
2019-04-25T12:01:13.757Z,5.20
2019-04-25T12:03:48.967Z,5.17
2019-04-25T12:06:24.345Z,4.78
2019-04-25T12:08:57.595Z,4.30
2019-04-25T12:11:31.352Z,4.83
2019-04-25T12:14:04.529Z,4.20
2019-04-25T12:16:38.204Z,4.67
2019-04-25T12:19:11.500Z,4.20
2019-04-25T12:21:44.734Z,4.78
2019-04-25T12:24:18.546Z,4.80
2019-04-25T12:26:51.334Z,4.28
2019-04-25T12:29:24.594Z,4.58
2019-04-25T12:31:58.591Z,4.40
2019-04-25T12:34:33.652Z,4.10
2019-04-25T12:37:07.367Z,3.62
2019-04-25T12:39:40.744Z,4.00
2019-04-25T12:42:14.453Z,4.65
2019-04-25T12:45:12.092Z,4.78
2019-04-25T12:47:47.659Z,4.10
2019-04-25T12:50:23.070Z,4.33
2019-04-25T12:52:56.091Z,3.77
2019-04-25T12:55:28.876Z,4.37
2019-04-25T12:58:03.464Z,3.98
2019-04-25T13:00:47.494Z,4.70
2019-04-25T13:03:14.317Z,3.65
2019-04-25T13:05:48.181Z,4.08
2019-04-25T13:08:21.464Z,4.42
2019-04-25T13:11:07.338Z,5.05
2019-04-25T13:13:30.955Z,4.55
2019-04-25T13:16:05.174Z,4.70
2019-04-25T13:18:38.844Z,4.60
2019-04-25T13:21:13.681Z,4.47
2019-04-25T13:23:47.900Z,4.55
2019-04-25T13:26:24.684Z,4.50
2019-04-25T13:29:18.255Z,4.67
2019-04-25T13:32:09.662Z,4.22
2019-04-25T13:34:46.263Z,4.40
2019-04-25T13:37:19.425Z,4.80
2019-04-25T13:39:54.066Z,4.25
2019-04-25T13:42:27.702Z,4.65
2019-04-25T13:45:01.772Z,4.83
2019-04-25T13:47:35.909Z,4.15
2019-04-25T13:50:09.011Z,3.80
2019-04-25T13:52:43.238Z,4.12
2019-04-25T13:55:17.087Z,3.95
2019-04-25T13:57:50.297Z,4.45
2019-04-25T14:00:26.068Z,4.47
2019-04-25T14:03:00.458Z,4.47
2019-04-25T14:05:35.334Z,4.00
2019-04-25T14:08:09.360Z,4.25
2019-04-25T14:10:44.299Z,4.47
2019-04-25T14:13:18.280Z,4.10
2019-04-25T14:16:25.392Z,3.95
2019-04-25T14:19:25.993Z,3.70
2019-04-25T14:22:01.958Z,3.92
2019-04-25T14:24:35.896Z,4.03
2019-04-25T14:27:10.058Z,4.17
2019-04-25T14:29:43.721Z,4.25
2019-04-25T14:32:19.003Z,4.35
2019-04-25T14:34:54.472Z,4.10
2019-04-25T14:37:31.778Z,3.90
2019-04-25T14:40:03.935Z,3.52
2019-04-25T14:42:36.917Z,3.62
2019-04-25T14:45:10.485Z,3.83
2019-04-25T14:47:43.807Z,4.22
2019-04-25T14:50:17.188Z,3.77
2019-04-25T14:52:51.320Z,3.42
2019-04-25T14:56:01.109Z,3.67
2019-04-25T14:58:36.897Z,4.45
2019-04-25T15:01:12.886Z,4.12
2019-04-25T15:03:46.631Z,3.67
2019-04-25T15:06:20.013Z,3.80
2019-04-25T15:08:53.331Z,3.90
2019-04-25T15:11:27.377Z,4.00
2019-04-25T15:14:01.065Z,3.27
2019-04-25T15:16:34.677Z,3.50
2019-04-25T15:19:08.563Z,4.12
2019-04-25T15:21:41.859Z,3.33
2019-04-25T15:24:14.806Z,2.77
2019-04-25T15:26:48.595Z,3.08
2019-04-25T15:29:22.940Z,3.27
2019-04-25T15:31:56.426Z,3.27
2019-04-25T15:34:36.150Z,3.30
2019-04-25T15:37:15.445Z,3.17
2019-04-25T15:39:53.395Z,3.05
2019-04-25T15:42:44.136Z,3.10
2019-04-25T15:45:35.317Z,3.00
2019-04-25T15:48:09.941Z,3.25
2019-04-25T15:50:43.509Z,2.90
2019-04-25T15:53:17.208Z,3.72
2019-04-25T15:55:50.579Z,3.02
2019-04-25T15:58:24.214Z,2.77
2019-04-25T16:00:57.394Z,2.80
2019-04-25T16:03:30.832Z,3.10
2019-04-25T16:06:04.712Z,3.17
2019-04-25T16:08:38.014Z,2.77
2019-04-25T16:11:12.221Z,3.10
2019-04-25T16:13:45.661Z,3.83
2019-04-25T16:16:19.354Z,5.47
2019-04-25T16:18:53.086Z,3.90
2019-04-25T16:21:27.802Z,3.15
2019-04-25T16:24:01.026Z,3.85
2019-04-25T16:26:35.504Z,4.05
2019-04-25T16:29:27.844Z,5.12
2019-04-25T16:32:03.592Z,4.17
2019-04-25T16:34:37.595Z,3.42
2019-04-25T16:37:11.037Z,4.00
2019-04-25T16:39:45.499Z,3.60
2019-04-25T16:42:19.344Z,3.40
2019-04-25T16:44:53.556Z,3.50
2019-04-25T16:47:29.921Z,3.77
2019-04-25T16:50:03.278Z,3.50
2019-04-25T16:52:36.488Z,3.75
2019-04-25T16:55:10.785Z,3.27
2019-04-25T16:57:43.434Z,3.80
2019-04-25T17:00:50.119Z,3.50
2019-04-25T17:03:25.319Z,3.30
2019-04-25T17:05:58.180Z,3.92
2019-04-25T17:08:32.434Z,3.30
2019-04-25T17:11:05.169Z,3.98
2019-04-25T17:13:43.381Z,3.45
2019-04-25T17:16:33.242Z,3.75
2019-04-25T17:19:12.459Z,3.65
2019-04-25T17:21:44.528Z,3.15
2019-04-25T17:24:17.407Z,3.80
2019-04-25T17:26:52.586Z,4.00
2019-04-25T17:29:26.119Z,3.95
2019-04-25T17:32:23.485Z,4.35
2019-04-25T17:35:06.372Z,4.33
2019-04-25T17:38:00.459Z,4.50
2019-04-25T17:40:32.843Z,4.70
2019-04-25T17:43:11.275Z,4.92
2019-04-25T17:45:42.123Z,5.08
2019-04-25T17:48:14.856Z,4.70
2019-04-25T17:50:47.705Z,5.22
2019-04-25T17:53:20.000Z,5.20
2019-04-25T17:55:52.921Z,5.70
2019-04-25T17:58:25.301Z,4.97
2019-04-25T18:00:59.017Z,5.47
2019-04-25T18:03:33.554Z,4.85
2019-04-25T18:06:05.784Z,6.55
2019-04-25T18:08:39.533Z,6.75
2019-04-25T18:11:13.197Z,7.95
2019-04-25T18:13:45.960Z,8.45
2019-04-25T18:16:42.318Z,8.95
2019-04-25T18:19:38.605Z,8.95
2019-04-25T18:22:18.461Z,7.75
2019-04-25T18:25:04.590Z,8.60
2019-04-25T18:27:44.801Z,9.18
2019-04-25T18:30:17.437Z,9.08
2019-04-25T18:33:10.238Z,9.53
2019-04-25T18:35:40.273Z,9.20
2019-04-25T18:38:27.911Z,9.73
2019-04-25T18:41:10.895Z,10.10
2019-04-25T18:43:53.194Z,10.95
2019-04-25T18:46:31.136Z,11.65
2019-04-25T18:49:04.229Z,12.55
2019-04-25T18:51:38.539Z,11.88
2019-04-25T18:54:43.260Z,11.48
2019-04-25T18:57:37.522Z,10.95
2019-04-25T19:00:44.060Z,11.40
2019-04-25T19:03:46.869Z,11.08
2019-04-25T19:06:21.348Z,10.55
2019-04-25T19:08:53.877Z,10.20
2019-04-25T19:11:27.372Z,9.18
2019-04-25T19:14:00.832Z,9.40
2019-04-25T19:16:34.530Z,8.30
2019-04-25T19:19:07.402Z,8.20
2019-04-25T19:21:40.717Z,9.15
2019-04-25T19:24:15.424Z,9.13
2019-04-25T19:26:48.927Z,10.63
2019-04-25T19:29:20.970Z,11.57
2019-04-25T19:31:55.683Z,10.10
2019-04-25T19:34:28.501Z,8.55
2019-04-25T19:37:01.859Z,9.50
2019-04-25T19:39:35.993Z,8.03
2019-04-25T19:42:26.641Z,8.68
2019-04-25T19:45:00.463Z,8.55
2019-04-25T19:47:34.054Z,9.45
2019-04-25T19:50:06.213Z,8.85
2019-04-25T19:52:39.100Z,9.05
2019-04-25T19:55:12.584Z,8.40
2019-04-25T19:57:44.719Z,8.40
2019-04-25T20:00:18.687Z,8.38
2019-04-25T20:03:19.890Z,8.60
2019-04-25T20:06:14.325Z,8.30
2019-04-25T20:09:08.787Z,8.50
2019-04-25T20:11:45.266Z,8.65
2019-04-25T20:14:18.550Z,9.05
2019-04-25T20:16:51.738Z,9.28
2019-04-25T20:19:24.618Z,9.88
2019-04-25T20:21:58.159Z,9.35
2019-04-25T20:24:30.679Z,9.63
2019-04-25T20:27:04.040Z,9.58
2019-04-25T20:29:36.997Z,9.53
2019-04-25T20:32:10.372Z,9.08
2019-04-25T20:34:44.594Z,8.63
2019-04-25T20:37:20.141Z,8.98
2019-04-25T20:39:54.036Z,8.50
2019-04-25T20:42:26.899Z,8.88
2019-04-25T20:45:00.567Z,8.55
2019-04-25T20:47:34.066Z,9.13
2019-04-25T20:50:07.773Z,8.13
2019-04-25T20:52:40.623Z,8.18
2019-04-25T20:55:14.312Z,8.43
2019-04-25T20:57:48.019Z,8.68
2019-04-25T21:00:43.202Z,7.75
2019-04-25T21:03:16.885Z,7.67
2019-04-25T21:05:53.090Z,8.00
2019-04-25T21:08:26.802Z,7.95
2019-04-25T21:11:00.490Z,8.60
2019-04-25T21:13:57.020Z,7.65
2019-04-25T21:16:57.170Z,7.78
2019-04-25T21:19:32.473Z,7.75
2019-04-25T21:22:06.223Z,8.23
2019-04-25T21:24:39.182Z,7.22
2019-04-25T21:27:12.432Z,7.87
2019-04-25T21:29:46.630Z,7.35
2019-04-25T21:32:21.159Z,7.03
2019-04-25T21:34:55.023Z,6.62
2019-04-25T21:37:28.393Z,6.60
2019-04-25T21:40:14.813Z,6.05
2019-04-25T21:42:53.896Z,7.53
2019-04-25T21:45:28.221Z,7.05
2019-04-25T21:48:01.612Z,6.75
2019-04-25T21:50:35.887Z,7.33
2019-04-25T21:53:10.765Z,7.70
2019-04-25T21:55:44.572Z,8.10
2019-04-25T21:58:18.801Z,7.87
2019-04-25T22:01:10.956Z,7.35
2019-04-25T22:03:44.278Z,7.92
2019-04-25T22:06:18.092Z,7.87
2019-04-25T22:08:52.300Z,7.30
2019-04-25T22:11:26.743Z,8.40
2019-04-25T22:14:00.442Z,8.40
2019-04-25T22:16:34.454Z,7.17
2019-04-25T22:19:10.575Z,8.10
2019-04-25T22:21:44.177Z,7.83
2019-04-25T22:24:17.846Z,7.90
2019-04-25T22:26:53.635Z,8.25
2019-04-25T22:29:28.098Z,7.33
2019-04-25T22:32:08.122Z,8.15
2019-04-25T22:34:52.533Z,8.40
2019-04-25T22:37:26.552Z,7.70
2019-04-25T22:40:01.228Z,7.90
2019-04-25T22:42:34.770Z,7.85
2019-04-25T22:45:10.473Z,8.50
2019-04-25T22:47:44.231Z,7.70
2019-04-25T22:50:17.222Z,7.87
2019-04-25T22:52:50.378Z,8.63
2019-04-25T22:55:24.429Z,8.93
2019-04-25T22:57:58.338Z,8.73
2019-04-25T23:00:37.940Z,8.73
2019-04-25T23:03:33.427Z,9.23
2019-04-25T23:06:07.591Z,8.50
2019-04-25T23:08:40.569Z,8.75
2019-04-25T23:11:14.343Z,8.58
2019-04-25T23:13:47.742Z,8.25
2019-04-25T23:16:21.793Z,8.08
2019-04-25T23:18:55.331Z,8.48
2019-04-25T23:21:29.036Z,8.63
2019-04-25T23:24:02.143Z,7.42
2019-04-25T23:26:44.657Z,7.60
2019-04-25T23:29:17.680Z,7.67
2019-04-25T23:31:51.597Z,7.40
2019-04-25T23:34:25.676Z,7.47
2019-04-25T23:36:59.790Z,7.28
2019-04-25T23:39:33.645Z,7.97
2019-04-25T23:42:07.247Z,7.90
2019-04-25T23:44:41.202Z,7.20
2019-04-25T23:47:14.732Z,8.35
2019-04-25T23:49:48.428Z,7.47
2019-04-25T23:52:22.378Z,7.50
2019-04-25T23:54:55.639Z,7.30
2019-04-25T23:57:29.392Z,6.85
